createdAt,value
2022-12-25T00:02:14.407Z,98596.81
2022-12-25T00:05:09.174Z,98584.41
2022-12-25T00:07:57.158Z,98582.16
2022-12-25T00:10:45.527Z,98587.19
2022-12-25T00:13:36.389Z,98583.59
2022-12-25T00:16:27.162Z,98579.97
2022-12-25T00:19:16.410Z,98573.28
2022-12-25T00:22:04.249Z,98567.72
2022-12-25T00:24:51.855Z,98571.31
2022-12-25T00:27:39.382Z,98579.00
2022-12-25T00:30:26.885Z,98573.97
2022-12-25T00:33:15.147Z,98576.59
2022-12-25T00:36:06.598Z,98575.19
2022-12-25T00:38:54.341Z,98568.00
2022-12-25T00:42:02.097Z,98577.13
2022-12-25T00:44:51.299Z,98575.31
2022-12-25T00:47:38.730Z,98571.31
2022-12-25T00:50:26.343Z,98572.53
2022-12-25T00:53:15.183Z,98576.59
2022-12-25T00:56:06.565Z,98575.91
2022-12-25T00:58:55.747Z,98578.31
2022-12-25T01:01:43.583Z,98579.97
2022-12-25T01:04:31.601Z,98580.94
2022-12-25T01:07:19.365Z,98578.69
2022-12-25T01:10:23.951Z,98579.63
2022-12-25T01:13:11.727Z,98594.66
2022-12-25T01:15:59.606Z,98589.63
2022-12-25T01:18:47.797Z,98587.69
2022-12-25T01:21:35.623Z,98586.81
2022-12-25T01:24:23.245Z,98591.97
2022-12-25T01:27:13.197Z,98593.75
2022-12-25T01:30:03.483Z,98589.94
2022-12-25T01:32:52.365Z,98591.28
2022-12-25T01:35:41.016Z,98590.19
2022-12-25T01:38:28.507Z,98587.81
2022-12-25T01:41:20.781Z,98576.84
2022-12-25T01:45:07.033Z,98591.41
2022-12-25T01:47:54.887Z,98592.72
2022-12-25T01:50:48.932Z,98596.09
2022-12-25T01:53:36.576Z,98581.91
2022-12-25T01:56:24.580Z,98590.78
2022-12-25T01:59:19.879Z,98593.44
2022-12-25T02:02:10.877Z,98590.91
2022-12-25T02:05:05.962Z,98585.16
2022-12-25T02:07:56.797Z,98588.66
2022-12-25T02:10:44.835Z,98592.84
2022-12-25T02:13:32.993Z,98591.03
2022-12-25T02:16:32.317Z,98599.94
2022-12-25T02:19:48.663Z,98599.59
2022-12-25T02:22:51.353Z,98604.88
2022-12-25T02:25:59.409Z,98602.63
2022-12-25T02:29:01.545Z,98604.56
2022-12-25T02:31:59.291Z,98601.44
2022-12-25T02:34:54.486Z,98605.06
2022-12-25T02:37:53.310Z,98603.38
2022-12-25T02:40:45.573Z,98608.09
2022-12-25T02:43:58.660Z,98603.03
2022-12-25T02:47:05.434Z,98597.75
2022-12-25T02:50:13.724Z,98606.78
2022-12-25T02:53:22.090Z,98599.44
2022-12-25T02:56:27.542Z,98586.34
2022-12-25T02:59:34.916Z,98583.94
2022-12-25T03:02:43.710Z,98588.28
2022-12-25T03:05:53.091Z,98590.22
2022-12-25T03:08:46.069Z,98579.03
2022-12-25T03:11:33.079Z,98577.88
2022-12-25T03:14:39.085Z,98578.00
2022-12-25T03:17:28.668Z,98570.31
2022-12-25T03:20:34.302Z,98577.28
2022-12-25T03:23:46.791Z,98572.00
2022-12-25T03:26:52.583Z,98567.19
2022-12-25T03:29:58.027Z,98554.72
2022-12-25T03:32:58.784Z,98554.72
2022-12-25T03:36:03.110Z,98555.81
2022-12-25T03:39:30.073Z,98550.78
2022-12-25T03:42:49.522Z,98548.63
2022-12-25T03:46:02.288Z,98535.66
2022-12-25T03:49:16.543Z,98532.19
2022-12-25T03:52:26.638Z,98530.75
2022-12-25T03:55:35.676Z,98532.78
2022-12-25T03:58:44.935Z,98535.69
2022-12-25T04:01:50.327Z,98533.41
2022-12-25T04:04:57.372Z,98534.88
2022-12-25T04:08:02.407Z,98531.78
2022-12-25T04:11:07.522Z,98548.34
2022-12-25T04:14:12.505Z,98552.41
2022-12-25T04:17:17.604Z,98550.16
2022-12-25T04:20:28.143Z,98538.28
2022-12-25T04:23:33.302Z,98546.53
2022-12-25T04:26:34.763Z,98544.50
2022-12-25T04:29:39.845Z,98551.94
2022-12-25T04:32:44.846Z,98561.16
2022-12-25T04:35:51.399Z,98561.75
2022-12-25T04:38:41.159Z,98562.22
2022-12-25T04:41:29.054Z,98573.34
2022-12-25T04:44:16.580Z,98573.00
2022-12-25T04:47:10.706Z,98576.09
2022-12-25T04:49:59.191Z,98577.41
2022-12-25T04:52:48.072Z,98581.34
2022-12-25T04:55:35.804Z,98580.75
2022-12-25T04:58:23.425Z,98575.09
2022-12-25T05:01:11.994Z,98565.75
2022-12-25T05:03:59.730Z,98566.19
2022-12-25T05:06:47.468Z,98556.97
2022-12-25T05:09:36.389Z,98555.38
2022-12-25T05:12:24.084Z,98546.03
2022-12-25T05:15:12.224Z,98545.44
2022-12-25T05:17:59.755Z,98546.72
2022-12-25T05:20:54.506Z,98547.91
2022-12-25T05:23:48.522Z,98543.84
2022-12-25T05:26:38.695Z,98548.59
2022-12-25T05:29:27.412Z,98544.53
2022-12-25T05:32:15.312Z,98546.53
2022-12-25T05:35:02.883Z,98535.63
2022-12-25T05:37:50.729Z,98533.44
2022-12-25T05:40:41.228Z,98532.00
2022-12-25T05:43:33.469Z,98527.19
2022-12-25T05:46:21.403Z,98528.38
2022-12-25T05:49:09.289Z,98525.97
2022-12-25T05:51:56.919Z,98512.28
2022-12-25T05:54:44.670Z,98525.53
2022-12-25T05:57:33.338Z,98527.81
2022-12-25T06:00:23.170Z,98532.31
2022-12-25T06:03:10.888Z,98541.38
2022-12-25T06:05:58.821Z,98539.91
2022-12-25T06:08:46.737Z,98548.16
2022-12-25T06:11:34.470Z,98539.84
2022-12-25T06:14:22.443Z,98545.34
2022-12-25T06:17:11.541Z,98541.25
2022-12-25T06:19:59.201Z,98545.16
2022-12-25T06:22:47.037Z,98546.31
2022-12-25T06:25:34.702Z,98539.59
2022-12-25T06:28:22.156Z,98550.41
2022-12-25T06:31:11.692Z,98546.22
2022-12-25T06:34:00.722Z,98542.97
2022-12-25T06:36:48.211Z,98542.34
2022-12-25T06:39:35.976Z,98542.47
2022-12-25T06:42:23.795Z,98546.13
2022-12-25T06:45:12.553Z,98546.13
2022-12-25T06:48:00.429Z,98554.13
2022-12-25T06:50:49.304Z,98556.75
2022-12-25T06:53:40.635Z,98564.63
2022-12-25T06:56:29.742Z,98560.22
2022-12-25T06:59:17.636Z,98554.13
2022-12-25T07:02:05.906Z,98550.94
2022-12-25T07:04:54.864Z,98553.38
2022-12-25T07:07:44.087Z,98558.25
2022-12-25T07:10:31.960Z,98552.28
2022-12-25T07:13:19.468Z,98552.50
2022-12-25T07:16:08.646Z,98544.81
2022-12-25T07:18:56.580Z,98555.56
2022-12-25T07:21:44.180Z,98554.63
2022-12-25T07:24:33.068Z,98560.34
2022-12-25T07:27:20.885Z,98567.47
2022-12-25T07:30:10.357Z,98568.03
2022-12-25T07:32:59.039Z,98571.28
2022-12-25T07:35:47.233Z,98566.53
2022-12-25T07:38:35.553Z,98566.06
2022-12-25T07:41:25.161Z,98557.41
2022-12-25T07:44:12.789Z,98552.16
2022-12-25T07:47:00.387Z,98536.81
2022-12-25T07:49:47.882Z,98529.75
2022-12-25T07:52:43.095Z,98526.75
2022-12-25T07:55:31.145Z,98530.81
2022-12-25T07:58:23.427Z,98533.22
2022-12-25T08:01:16.687Z,98537.28
2022-12-25T08:04:04.876Z,98539.00
2022-12-25T08:06:52.754Z,98546.66
2022-12-25T08:09:40.092Z,98542.59
2022-12-25T08:12:27.627Z,98535.84
2022-12-25T08:15:16.785Z,98536.38
2022-12-25T08:18:04.659Z,98536.50
2022-12-25T08:20:52.494Z,98531.56
2022-12-25T08:23:43.453Z,98526.66
2022-12-25T08:26:31.553Z,98518.13
2022-12-25T08:29:19.457Z,98515.88
2022-12-25T08:32:08.268Z,98514.78
2022-12-25T08:34:58.024Z,98514.41
2022-12-25T08:37:45.834Z,98513.91
2022-12-25T08:40:35.628Z,98518.31
2022-12-25T08:43:25.847Z,98520.47
2022-12-25T08:46:13.940Z,98521.78
2022-12-25T08:49:03.273Z,98520.44
2022-12-25T08:51:51.076Z,98522.34
2022-12-25T08:54:38.469Z,98532.84
2022-12-25T08:57:25.901Z,98533.19
2022-12-25T09:00:14.989Z,98531.72
2022-12-25T09:03:04.429Z,98522.31
2022-12-25T09:05:54.639Z,98529.88
2022-12-25T09:08:48.789Z,98535.63
2022-12-25T09:11:37.417Z,98528.00
2022-12-25T09:14:24.994Z,98520.41
2022-12-25T09:17:12.627Z,98520.84
2022-12-25T09:20:02.782Z,98521.31
2022-12-25T09:22:51.507Z,98535.69
2022-12-25T09:25:39.400Z,98531.56
2022-12-25T09:28:27.174Z,98531.16
2022-12-25T09:31:14.823Z,98542.06
2022-12-25T09:34:02.269Z,98549.50
2022-12-25T09:36:49.872Z,98540.19
2022-12-25T09:39:45.848Z,98537.97
2022-12-25T09:42:35.341Z,98526.03
2022-12-25T09:45:29.958Z,98509.63
2022-12-25T09:48:18.647Z,98511.59
2022-12-25T09:51:15.881Z,98497.72
2022-12-25T09:54:15.617Z,98485.22
2022-12-25T09:57:06.517Z,98488.16
2022-12-25T09:59:57.057Z,98479.41
2022-12-25T10:03:13.372Z,98467.19
2022-12-25T10:06:14.349Z,98458.03
2022-12-25T10:09:30.254Z,98436.66
2022-12-25T10:12:39.713Z,98423.72
2022-12-25T10:15:47.596Z,98398.09
2022-12-25T10:19:08.266Z,98387.81
2022-12-25T10:22:19.580Z,98395.00
2022-12-25T10:25:18.890Z,98402.78
2022-12-25T10:28:15.587Z,98404.59
2022-12-25T10:31:19.907Z,98398.03
2022-12-25T10:34:11.618Z,98397.50
2022-12-25T10:37:02.400Z,98408.53
2022-12-25T10:39:53.399Z,98412.59
2022-12-25T10:42:47.369Z,98418.38
2022-12-25T10:45:50.294Z,98421.41
2022-12-25T10:48:44.393Z,98426.94
2022-12-25T10:51:35.459Z,98418.56
2022-12-25T10:54:27.512Z,98419.50
2022-12-25T10:57:19.440Z,98422.69
2022-12-25T11:00:21.900Z,98413.75
2022-12-25T11:03:26.517Z,98413.25
2022-12-25T11:06:26.214Z,98427.03
2022-12-25T11:09:18.307Z,98402.47
2022-12-25T11:12:07.169Z,98398.41
2022-12-25T11:14:58.342Z,98393.59
2022-12-25T11:17:50.733Z,98388.00
2022-12-25T11:20:45.377Z,98375.41
2022-12-25T11:23:34.811Z,98364.06
2022-12-25T11:26:24.456Z,98369.22
2022-12-25T11:29:27.129Z,98363.16
2022-12-25T11:32:23.392Z,98358.88
2022-12-25T11:35:15.964Z,98358.97
2022-12-25T11:38:05.579Z,98351.66
2022-12-25T11:40:58.518Z,98346.63
2022-12-25T11:43:54.439Z,98341.84
2022-12-25T11:46:52.107Z,98335.78
2022-12-25T11:50:00.294Z,98332.25
2022-12-25T11:52:49.841Z,98329.81
2022-12-25T11:55:44.373Z,98325.31
2022-12-25T11:58:41.690Z,98326.16
2022-12-25T12:01:38.259Z,98317.41
2022-12-25T12:04:38.500Z,98306.09
2022-12-25T12:07:34.191Z,98291.13
2022-12-25T12:10:33.575Z,98283.28
2022-12-25T12:13:41.717Z,98285.88
2022-12-25T12:16:30.532Z,98290.50
2022-12-25T12:19:28.743Z,98280.03
2022-12-25T12:22:23.365Z,98264.28
2022-12-25T12:25:19.912Z,98267.34
2022-12-25T12:28:13.306Z,98269.00
2022-12-25T12:31:06.684Z,98259.53
2022-12-25T12:33:58.525Z,98256.03
2022-12-25T12:36:46.685Z,98251.44
2022-12-25T12:39:39.506Z,98247.97
2022-12-25T12:42:32.613Z,98243.00
2022-12-25T12:45:27.121Z,98244.19
2022-12-25T12:48:29.041Z,98235.03
2022-12-25T12:51:31.397Z,98232.06
2022-12-25T12:54:23.069Z,98227.28
2022-12-25T12:57:26.995Z,98232.94
2022-12-25T13:00:20.913Z,98228.31
2022-12-25T13:03:38.724Z,98227.00
2022-12-25T13:06:35.847Z,98234.63
2022-12-25T13:09:39.652Z,98237.94
2022-12-25T13:12:27.425Z,98223.13
2022-12-25T13:15:16.057Z,98228.13
2022-12-25T13:18:08.798Z,98245.63
2022-12-25T13:21:02.493Z,98241.25
2022-12-25T13:23:57.515Z,98229.09
2022-12-25T13:26:45.540Z,98219.81
2022-12-25T13:29:36.503Z,98217.69
2022-12-25T13:32:27.981Z,98224.16
2022-12-25T13:35:17.426Z,98218.69
2022-12-25T13:38:16.247Z,98214.69
2022-12-25T13:41:23.504Z,98210.69
2022-12-25T13:44:22.427Z,98193.53
2022-12-25T13:47:22.959Z,98186.72
2022-12-25T13:50:22.892Z,98188.38
2022-12-25T13:53:17.662Z,98208.34
2022-12-25T13:56:07.148Z,98205.03
2022-12-25T13:58:55.169Z,98205.69
2022-12-25T14:01:44.523Z,98201.34
2022-12-25T14:04:32.624Z,98193.03
2022-12-25T14:07:24.694Z,98206.47
2022-12-25T14:10:15.455Z,98199.44
2022-12-25T14:13:09.538Z,98193.97
2022-12-25T14:15:59.201Z,98206.91
2022-12-25T14:18:53.627Z,98213.53
2022-12-25T14:21:49.358Z,98204.22
2022-12-25T14:24:38.999Z,98217.47
2022-12-25T14:27:31.303Z,98231.22
2022-12-25T14:30:20.571Z,98221.75
2022-12-25T14:33:16.326Z,98217.38
2022-12-25T14:36:05.246Z,98213.00
2022-12-25T14:38:59.542Z,98207.03
2022-12-25T14:41:55.159Z,98213.00
2022-12-25T14:45:41.199Z,98213.47
2022-12-25T14:48:31.573Z,98210.56
2022-12-25T14:51:20.277Z,98205.72
2022-12-25T14:54:22.821Z,98212.50
2022-12-25T14:57:21.169Z,98207.81
2022-12-25T15:00:25.561Z,98198.13
2022-12-25T15:03:27.958Z,98181.81
2022-12-25T15:06:28.339Z,98175.16
2022-12-25T15:09:19.171Z,98179.31
2022-12-25T15:12:07.607Z,98179.88
2022-12-25T15:14:55.100Z,98183.50
2022-12-25T15:17:44.552Z,98194.25
2022-12-25T15:20:38.838Z,98200.28
2022-12-25T15:23:26.989Z,98197.03
2022-12-25T15:26:15.959Z,98196.53
2022-12-25T15:29:07.592Z,98198.34
2022-12-25T15:31:58.397Z,98191.53
2022-12-25T15:34:50.276Z,98192.66
2022-12-25T15:37:38.297Z,98196.63
2022-12-25T15:40:26.229Z,98197.94
2022-12-25T15:43:39.429Z,98197.53
2022-12-25T15:46:24.634Z,98202.03
2022-12-25T15:49:13.708Z,98208.78
2022-12-25T15:52:03.686Z,98201.28
2022-12-25T15:54:51.342Z,98206.06
2022-12-25T15:57:42.694Z,98209.72
2022-12-25T16:00:30.548Z,98204.84
2022-12-25T16:03:18.067Z,98203.31
2022-12-25T16:06:06.015Z,98204.78
2022-12-25T16:08:54.870Z,98209.56
2022-12-25T16:11:44.491Z,98214.19
2022-12-25T16:14:32.444Z,98217.13
2022-12-25T16:17:20.084Z,98216.88
2022-12-25T16:20:10.817Z,98205.22
2022-12-25T16:22:58.247Z,98205.81
2022-12-25T16:25:47.174Z,98210.59
2022-12-25T16:28:35.149Z,98195.66
2022-12-25T16:31:22.832Z,98195.44
2022-12-25T16:34:11.202Z,98198.53
2022-12-25T16:36:58.868Z,98192.69
2022-12-25T16:39:46.498Z,98190.31
2022-12-25T16:42:35.420Z,98192.00
2022-12-25T16:45:23.230Z,98199.41
2022-12-25T16:48:10.939Z,98207.38
2022-12-25T16:50:58.507Z,98200.13
2022-12-25T16:53:46.539Z,98189.81
2022-12-25T16:56:36.432Z,98185.66
2022-12-25T16:59:25.458Z,98184.25
2022-12-25T17:02:19.225Z,98181.75
2022-12-25T17:05:08.482Z,98193.19
2022-12-25T17:07:55.965Z,98201.00
2022-12-25T17:10:45.369Z,98203.66
2022-12-25T17:13:33.032Z,98202.13
2022-12-25T17:16:26.292Z,98202.00
2022-12-25T17:19:20.408Z,98190.97
2022-12-25T17:22:08.387Z,98195.59
2022-12-25T17:24:56.202Z,98171.72
2022-12-25T17:27:44.047Z,98172.06
2022-12-25T17:30:32.957Z,98184.16
2022-12-25T17:33:21.985Z,98183.47
2022-12-25T17:36:12.635Z,98174.00
2022-12-25T17:39:01.717Z,98177.66
2022-12-25T17:41:51.421Z,98189.34
2022-12-25T17:44:39.295Z,98179.75
2022-12-25T17:47:27.266Z,98173.22
2022-12-25T17:50:16.314Z,98172.25
2022-12-25T17:53:05.353Z,98174.91
2022-12-25T17:55:57.984Z,98182.69
2022-12-25T17:58:50.896Z,98166.25
2022-12-25T18:01:40.548Z,98169.38
2022-12-25T18:04:28.553Z,98165.72
2022-12-25T18:07:17.557Z,98156.25
2022-12-25T18:10:06.456Z,98159.88
2022-12-25T18:12:54.235Z,98151.78
2022-12-25T18:15:42.727Z,98140.38
2022-12-25T18:18:30.437Z,98148.16
2022-12-25T18:21:18.739Z,98156.94
2022-12-25T18:24:09.394Z,98171.03
2022-12-25T18:26:58.934Z,98167.53
2022-12-25T18:29:46.687Z,98167.53
2022-12-25T18:32:34.592Z,98158.16
2022-12-25T18:35:28.984Z,98171.88
2022-12-25T18:38:16.709Z,98177.75
2022-12-25T18:41:09.371Z,98169.41
2022-12-25T18:44:00.774Z,98172.34
2022-12-25T18:46:48.441Z,98171.34
2022-12-25T18:49:37.039Z,98176.66
2022-12-25T18:52:50.373Z,98171.50
2022-12-25T18:55:32.922Z,98186.72
2022-12-25T18:58:22.394Z,98187.16
2022-12-25T19:01:17.152Z,98180.50
2022-12-25T19:04:06.230Z,98159.72
2022-12-25T19:06:54.017Z,98155.53
2022-12-25T19:09:41.750Z,98158.78
2022-12-25T19:12:29.607Z,98160.31
2022-12-25T19:15:18.794Z,98154.63
2022-12-25T19:18:06.705Z,98138.59
2022-12-25T19:20:54.542Z,98136.94
2022-12-25T19:23:42.179Z,98145.31
2022-12-25T19:26:30.368Z,98143.38
2022-12-25T19:29:18.775Z,98131.00
2022-12-25T19:32:08.198Z,98126.72
2022-12-25T19:34:55.760Z,98124.47
2022-12-25T19:37:43.382Z,98136.19
2022-12-25T19:40:30.824Z,98140.41
2022-12-25T19:43:18.428Z,98136.19
2022-12-25T19:46:08.294Z,98142.75
2022-12-25T19:48:59.129Z,98143.47
2022-12-25T19:51:48.737Z,98146.53
2022-12-25T19:54:36.445Z,98170.75
2022-12-25T19:57:24.230Z,98176.47
2022-12-25T20:00:12.719Z,98183.84
2022-12-25T20:03:01.433Z,98176.59
2022-12-25T20:05:50.750Z,98181.31
2022-12-25T20:08:38.608Z,98175.63
2022-12-25T20:11:30.177Z,98189.41
2022-12-25T20:14:18.209Z,98204.81
2022-12-25T20:17:09.496Z,98200.13
2022-12-25T20:20:01.788Z,98212.63
2022-12-25T20:22:50.991Z,98199.41
2022-12-25T20:25:42.245Z,98209.44
2022-12-25T20:28:31.961Z,98207.03
2022-12-25T20:31:24.282Z,98201.47
2022-12-25T20:34:13.325Z,98199.38
2022-12-25T20:37:01.197Z,98214.09
2022-12-25T20:39:50.569Z,98210.03
2022-12-25T20:42:38.328Z,98214.03
2022-12-25T20:45:29.133Z,98216.25
2022-12-25T20:48:17.048Z,98209.69
2022-12-25T20:51:10.516Z,98220.66
2022-12-25T20:53:58.462Z,98213.16
2022-12-25T20:56:49.791Z,98222.28
2022-12-25T20:59:40.115Z,98219.22
2022-12-25T21:02:34.593Z,98207.22
2022-12-25T21:05:25.290Z,98205.84
2022-12-25T21:08:13.432Z,98208.06
2022-12-25T21:11:02.675Z,98203.84
2022-12-25T21:13:51.943Z,98210.50
2022-12-25T21:16:39.624Z,98209.09
2022-12-25T21:19:27.632Z,98207.44
2022-12-25T21:22:15.886Z,98209.66
2022-12-25T21:25:03.888Z,98215.59
2022-12-25T21:27:54.344Z,98210.00
2022-12-25T21:30:43.980Z,98207.38
2022-12-25T21:33:49.404Z,98193.03
2022-12-25T21:36:37.105Z,98196.31
2022-12-25T21:39:24.927Z,98197.88
2022-12-25T21:42:15.675Z,98200.63
2022-12-25T21:45:06.648Z,98199.69
2022-12-25T21:48:02.753Z,98206.25
2022-12-25T21:51:08.195Z,98198.88
2022-12-25T21:53:55.971Z,98194.25
2022-12-25T21:56:47.201Z,98212.13
2022-12-25T21:59:35.357Z,98200.88
2022-12-25T22:02:23.688Z,98214.44
2022-12-25T22:05:36.840Z,98221.03
2022-12-25T22:08:26.100Z,98234.47
2022-12-25T22:11:27.876Z,98229.47
2022-12-25T22:14:51.559Z,98235.00
2022-12-25T22:18:01.552Z,98235.41
2022-12-25T22:20:50.336Z,98235.66
2022-12-25T22:23:38.069Z,98235.91
2022-12-25T22:26:25.874Z,98249.47
2022-12-25T22:29:13.741Z,98248.63
2022-12-25T22:32:01.547Z,98252.09
2022-12-25T22:34:49.702Z,98256.28
2022-12-25T22:37:39.177Z,98254.47
2022-12-25T22:40:26.842Z,98256.66
2022-12-25T22:43:17.281Z,98266.22
2022-12-25T22:46:05.265Z,98271.97
2022-12-25T22:48:53.157Z,98273.88
2022-12-25T22:51:41.035Z,98275.56
2022-12-25T22:54:32.346Z,98273.88
2022-12-25T22:57:20.731Z,98271.06
2022-12-25T23:00:10.446Z,98269.63
2022-12-25T23:02:58.631Z,98264.13
2022-12-25T23:05:46.304Z,98263.25
2022-12-25T23:08:33.742Z,98258.84
2022-12-25T23:11:23.439Z,98262.53
2022-12-25T23:14:30.763Z,98271.72
2022-12-25T23:17:32.117Z,98274.78
2022-12-25T23:20:37.521Z,98276.94
2022-12-25T23:23:42.487Z,98272.97
2022-12-25T23:26:31.345Z,98269.88
2022-12-25T23:29:37.104Z,98271.41
2022-12-25T23:32:28.061Z,98272.13
2022-12-25T23:35:15.698Z,98271.41
2022-12-25T23:38:03.273Z,98283.63
2022-12-25T23:40:51.520Z,98283.09
2022-12-25T23:43:40.522Z,98289.28
2022-12-25T23:46:28.247Z,98300.06
2022-12-25T23:49:16.028Z,98305.47
2022-12-25T23:52:04.225Z,98312.66
2022-12-25T23:54:51.964Z,98317.72
2022-12-25T23:57:39.575Z,98304.41
